Time;durP1;ratioP1;P1;durP2;ratioP2;P2;SDS_P1;SDS_P2;PMS_P1;PMS_P2;Temp;Humidity;BMP_temperature;BMP_pressure;BME280_temperature;BME280_humidity;BME280_pressure;Samples;Min_cycle;Max_cycle;Signal;HPM_P1;HPM_P2
2022/02/26 00:00:15;;;;;;;3.88;0.57;;;;;;;6.55;100.00;101868.25;4937159;29;20050;-55
2022/02/26 00:02:42;;;;;;;5.93;1.05;;;;;;;6.50;100.00;101871.03;4938136;29;20024;-57
2022/02/26 00:05:09;;;;;;;2.20;0.45;;;;;;;6.42;100.00;101877.06;4940495;29;20512;-54
2022/02/26 00:07:34;;;;;;;1.40;0.75;;;;;;;6.47;100.00;101879.63;4931063;29;20024;-54
2022/02/26 00:10:00;;;;;;;10.25;1.48;;;;;;;6.46;100.00;101886.09;4921896;29;20077;-56
2022/02/26 00:12:27;;;;;;;5.20;1.55;;;;;;;6.43;100.00;101891.25;4932601;29;20160;-52
2022/02/26 00:14:53;;;;;;;1.38;0.80;;;;;;;6.41;100.00;101890.75;4942948;29;20781;-56
2022/02/26 00:17:18;;;;;;;10.68;0.95;;;;;;;6.37;100.00;101882.50;4934714;29;20047;-52
2022/02/26 00:19:43;;;;;;;4.65;1.45;;;;;;;6.28;100.00;101889.63;4920207;29;20158;-55
2022/02/26 00:22:10;;;;;;;0.98;0.40;;;;;;;6.26;100.00;101889.91;4933950;28;20039;-58
2022/02/26 00:24:35;;;;;;;4.80;1.13;;;;;;;6.20;100.00;101901.00;4936915;29;20038;-53
2022/02/26 00:27:01;;;;;;;2.03;0.68;;;;;;;6.19;100.00;101888.72;4955363;29;20046;-56
2022/02/26 00:29:26;;;;;;;3.65;1.30;;;;;;;6.17;100.00;101902.38;4953289;29;20047;-58
2022/02/26 00:31:52;;;;;;;3.00;1.25;;;;;;;6.15;100.00;101906.44;4954177;29;20047;-58
2022/02/26 00:34:18;;;;;;;4.38;0.95;;;;;;;6.13;100.00;101897.91;4954498;29;20168;-55
2022/02/26 00:36:44;;;;;;;2.92;0.90;;;;;;;6.14;100.00;101910.19;4953300;29;20039;-58
2022/02/26 00:39:09;;;;;;;1.58;0.55;;;;;;;6.12;100.00;101907.00;4953712;29;20533;-56
2022/02/26 00:41:34;;;;;;;10.68;1.05;;;;;;;6.14;100.00;101920.88;4954219;29;20074;-57
2022/02/26 00:44:00;;;;;;;1.77;0.73;;;;;;;6.06;100.00;101925.03;4954935;29;20074;-57
2022/02/26 00:46:25;;;;;;;6.10;0.98;;;;;;;6.08;100.00;101922.03;4949877;29;20142;-53
2022/02/26 00:51:34;;;;;;;13.00;1.42;;;;;;;5.99;100.00;101939.84;4935483;29;20039;-55
2022/02/26 00:54:00;;;;;;;6.82;0.82;;;;;;;5.93;100.00;101936.47;4935006;29;20045;-58
2022/02/26 00:56:25;;;;;;;8.30;1.23;;;;;;;6.00;100.00;101941.47;4932171;28;20042;-57
2022/02/26 00:58:52;;;;;;;1.15;0.57;;;;;;;6.07;100.00;101949.88;4951675;28;20039;-58
2022/02/26 01:01:17;;;;;;;2.10;0.98;;;;;;;5.96;100.00;101957.25;4950037;28;20177;-56
2022/02/26 01:03:43;;;;;;;2.25;0.82;;;;;;;5.91;100.00;101954.69;4938615;28;20043;-58
2022/02/26 01:06:08;;;;;;;3.15;0.77;;;;;;;5.83;100.00;101951.81;4944107;28;20031;-58
2022/02/26 01:08:34;;;;;;;1.80;0.75;;;;;;;5.87;100.00;101971.56;4952977;28;20494;-58
2022/02/26 01:10:59;;;;;;;12.20;0.80;;;;;;;5.86;100.00;101956.63;4957368;28;20066;-58
2022/02/26 01:13:24;;;;;;;8.95;0.77;;;;;;;5.84;100.00;101969.50;4941710;28;20538;-50
2022/02/26 01:15:50;;;;;;;4.63;2.45;;;;;;;5.80;100.00;101960.44;4940626;29;20047;-56
2022/02/26 01:18:16;;;;;;;5.18;0.68;;;;;;;5.78;100.00;101975.97;4938720;28;20118;-56
2022/02/26 01:20:42;;;;;;;6.85;1.40;;;;;;;5.74;100.00;101973.09;4946287;28;20031;-53
2022/02/26 01:23:07;;;;;;;1.30;0.57;;;;;;;5.72;100.00;101974.44;4949614;28;20046;-53
2022/02/26 01:25:33;;;;;;;6.10;1.85;;;;;;;5.73;100.00;101984.06;4953402;28;20105;-53
2022/02/26 01:27:58;;;;;;;5.03;0.90;;;;;;;5.75;100.00;101981.91;4947596;28;20040;-55
2022/02/26 01:30:24;;;;;;;10.68;1.23;;;;;;;5.65;100.00;101993.53;4930287;29;20380;-53
2022/02/26 01:32:49;;;;;;;2.10;0.88;;;;;;;5.76;100.00;101999.50;4940325;28;20380;-54
2022/02/26 01:35:14;;;;;;;1.42;1.25;;;;;;;5.70;100.00;101997.97;4944677;28;20490;-50
2022/02/26 01:37:40;;;;;;;7.75;1.40;;;;;;;5.70;100.00;102001.47;4945247;28;20067;-53
2022/02/26 01:40:07;;;;;;;3.60;0.43;;;;;;;5.69;100.00;101999.09;4933110;28;20090;-58
2022/02/26 01:42:32;;;;;;;1.23;0.75;;;;;;;5.60;100.00;101992.78;4943663;28;20023;-52
2022/02/26 01:44:58;;;;;;;2.20;1.02;;;;;;;5.51;100.00;102000.66;4950961;28;20447;-52
2022/02/26 01:47:23;;;;;;;6.85;1.15;;;;;;;5.50;100.00;101991.84;4941158;28;20035;-54
2022/02/26 01:49:49;;;;;;;5.80;0.88;;;;;;;5.53;100.00;102003.03;4938578;29;20102;-52
2022/02/26 01:52:17;;;;;;;3.13;1.25;;;;;;;5.51;100.00;102006.00;4937501;29;20027;-55
2022/02/26 01:54:45;;;;;;;5.40;0.77;;;;;;;5.47;100.00;102005.78;4945612;29;20063;-54
2022/02/26 01:57:10;;;;;;;0.43;0.32;;;;;;;5.48;100.00;102015.38;4937235;29;20047;-54
2022/02/26 01:59:36;;;;;;;2.70;1.50;;;;;;;5.43;100.00;102023.47;4938650;29;20724;-54
2022/02/26 02:02:01;;;;;;;6.20;1.15;;;;;;;5.55;100.00;102019.56;4937121;29;20090;-57
2022/02/26 02:04:27;;;;;;;9.10;1.17;;;;;;;5.54;100.00;102018.75;4942667;29;20091;-56
2022/02/26 02:06:52;;;;;;;1.63;0.50;;;;;;;5.49;100.00;102022.31;4931245;29;20510;-56
2022/02/26 02:09:18;;;;;;;5.25;0.85;;;;;;;5.53;100.00;102024.41;4931623;29;20039;-53
2022/02/26 02:11:44;;;;;;;5.13;0.43;;;;;;;5.44;100.00;102030.38;4938684;29;20494;-55
2022/02/26 02:14:09;;;;;;;6.65;0.75;;;;;;;5.34;100.00;102035.84;4941919;29;20042;-58
2022/02/26 02:16:36;;;;;;;1.20;0.98;;;;;;;5.33;100.00;102044.13;4935354;29;20039;-57
2022/02/26 02:19:06;;;;;;;5.88;0.57;;;;;;;5.27;100.00;102038.06;4945124;29;20043;-53
2022/02/26 02:21:31;;;;;;;5.82;0.88;;;;;;;5.32;100.00;102042.56;4952428;28;20039;-57
2022/02/26 02:23:57;;;;;;;10.90;1.83;;;;;;;5.35;100.00;102044.66;4949153;29;20050;-58
2022/02/26 02:26:22;;;;;;;1.05;0.65;;;;;;;5.33;100.00;102052.94;4933129;29;20039;-56
2022/02/26 02:28:47;;;;;;;3.78;1.02;;;;;;;5.35;100.00;102056.13;4932778;29;20051;-56
2022/02/26 02:31:16;;;;;;;1.27;0.85;;;;;;;5.34;100.00;102051.84;4940261;28;20039;-57
2022/02/26 02:33:46;;;;;;;10.25;1.08;;;;;;;5.25;100.00;102053.56;4953323;28;20126;-54
2022/02/26 02:36:14;;;;;;;6.82;0.68;;;;;;;5.29;100.00;102059.94;4952458;29;20039;-55
2022/02/26 02:38:39;;;;;;;3.20;0.75;;;;;;;5.33;100.00;102066.31;4937421;29;20038;-55
2022/02/26 02:41:05;;;;;;;2.80;0.43;;;;;;;5.27;100.00;102064.75;4933097;29;20039;-58
2022/02/26 02:43:32;;;;;;;8.48;1.95;;;;;;;5.32;100.00;102066.59;4916385;29;20039;-57
2022/02/26 02:45:58;;;;;;;2.60;1.15;;;;;;;5.24;100.00;102076.03;4898074;29;20387;-54
2022/02/26 02:48:24;;;;;;;6.88;0.95;;;;;;;5.23;100.00;102081.63;4946886;29;20438;-58
2022/02/26 02:50:50;;;;;;;4.50;0.93;;;;;;;5.27;100.00;102078.13;4929296;29;20045;-57
2022/02/26 02:53:18;;;;;;;8.35;1.20;;;;;;;5.22;100.00;102091.53;4932507;29;20160;-56
2022/02/26 02:55:46;;;;;;;1.27;0.73;;;;;;;5.23;100.00;102087.78;4940008;29;20499;-54
2022/02/26 02:58:11;;;;;;;5.40;1.45;;;;;;;5.26;100.00;102092.56;4949909;29;20102;-57
2022/02/26 03:00:38;;;;;;;5.88;0.73;;;;;;;5.23;100.00;102105.66;4951551;29;20567;-53
2022/02/26 03:03:05;;;;;;;1.77;0.63;;;;;;;5.19;100.00;102094.75;4952126;28;20371;-55
2022/02/26 03:05:31;;;;;;;2.08;0.93;;;;;;;5.08;100.00;102106.63;4935357;29;20027;-53
2022/02/26 03:07:57;;;;;;;7.45;0.73;;;;;;;5.10;100.00;102101.00;4932153;29;20043;-54
2022/02/26 03:10:22;;;;;;;4.45;0.80;;;;;;;5.09;100.00;102104.75;4930811;29;20070;-56
2022/02/26 03:12:52;;;;;;;1.15;1.05;;;;;;;5.13;100.00;102113.78;4934935;29;20835;-54
2022/02/26 03:15:19;;;;;;;4.70;0.60;;;;;;;5.07;100.00;102114.91;4931233;29;20039;-54
2022/02/26 03:17:45;;;;;;;3.15;0.90;;;;;;;5.08;100.00;102122.63;4951730;29;20035;-51
2022/02/26 03:20:11;;;;;;;8.48;0.70;;;;;;;5.06;100.00;102124.78;4943153;28;20035;-54
2022/02/26 03:22:37;;;;;;;1.92;0.55;;;;;;;5.11;100.00;102123.94;4933864;29;20082;-57
2022/02/26 03:25:03;;;;;;;3.63;0.60;;;;;;;5.00;100.00;102131.25;4951385;29;20410;-57
2022/02/26 03:27:28;;;;;;;9.07;0.63;;;;;;;5.04;100.00;102134.16;4944132;29;20102;-56
2022/02/26 03:29:54;;;;;;;5.32;1.65;;;;;;;4.94;100.00;102134.22;4950528;29;20097;-55
2022/02/26 03:32:19;;;;;;;3.55;0.98;;;;;;;4.90;100.00;102142.00;4950619;29;20035;-53
2022/02/26 03:34:46;;;;;;;7.05;1.27;;;;;;;4.85;100.00;102151.91;4944446;29;20054;-50
2022/02/26 03:37:12;;;;;;;2.33;0.93;;;;;;;4.87;100.00;102155.13;4950748;29;20388;-52
2022/02/26 03:39:37;;;;;;;1.88;0.80;;;;;;;4.85;100.00;102151.91;4950571;29;20031;-49
2022/02/26 03:42:05;;;;;;;3.55;0.90;;;;;;;4.88;100.00;102175.41;4949439;29;20550;-54
2022/02/26 03:44:32;;;;;;;14.18;1.38;;;;;;;4.83;100.00;102168.22;4944982;29;20058;-50
2022/02/26 03:47:00;;;;;;;2.75;0.65;;;;;;;4.83;100.00;102188.75;4950798;29;20376;-55
2022/02/26 03:49:26;;;;;;;7.68;1.08;;;;;;;4.82;100.00;102177.28;4949865;29;20047;-54
2022/02/26 03:51:52;;;;;;;3.53;1.08;;;;;;;4.80;100.00;102182.09;4946705;29;20499;-53
2022/02/26 03:54:18;;;;;;;1.38;0.50;;;;;;;4.72;100.00;102190.72;4950087;28;20038;-54
2022/02/26 03:56:43;;;;;;;4.57;0.93;;;;;;;4.69;100.00;102191.25;4940380;28;20075;-51
2022/02/26 03:59:09;;;;;;;0.35;0.22;;;;;;;4.70;100.00;102194.72;4952524;28;20046;-55
2022/02/26 04:01:35;;;;;;;0.70;0.60;;;;;;;4.69;100.00;102191.25;4953589;29;20054;-52
2022/02/26 04:04:01;;;;;;;8.40;0.98;;;;;;;4.68;100.00;102203.00;4935474;29;20062;-49
2022/02/26 04:06:26;;;;;;;4.32;0.63;;;;;;;4.66;100.00;102205.16;4954773;29;20035;-53
2022/02/26 04:08:52;;;;;;;11.15;2.22;;;;;;;4.65;100.00;102208.09;4953049;29;20054;-53
2022/02/26 04:11:17;;;;;;;15.45;1.00;;;;;;;4.63;100.00;102216.38;4950318;29;20027;-52
2022/02/26 04:13:43;;;;;;;3.13;0.73;;;;;;;4.59;100.00;102205.47;4954042;29;20031;-49
2022/02/26 04:16:08;;;;;;;4.00;0.63;;;;;;;4.61;100.00;102217.75;4953756;29;20027;-54
2022/02/26 04:18:34;;;;;;;9.00;0.85;;;;;;;4.56;100.00;102227.34;4953114;29;20067;-51
2022/02/26 04:20:59;;;;;;;3.75;0.43;;;;;;;4.50;100.00;102227.66;4935426;29;20095;-50
2022/02/26 04:23:24;;;;;;;1.02;0.68;;;;;;;4.50;100.00;102244.47;4935078;29;20040;-57
2022/02/26 04:25:50;;;;;;;2.63;0.38;;;;;;;4.48;100.00;102233.25;4934857;29;20031;-49
2022/02/26 04:28:16;;;;;;;2.83;0.63;;;;;;;4.42;100.00;102238.88;4953019;29;20122;-50
2022/02/26 04:30:42;;;;;;;1.80;0.90;;;;;;;4.37;100.00;102241.59;4953469;29;20130;-56
2022/02/26 04:33:08;;;;;;;9.80;0.93;;;;;;;4.35;100.00;102247.19;4954085;29;20114;-48
2022/02/26 04:35:34;;;;;;;1.75;0.57;;;;;;;4.38;100.00;102245.84;4946534;29;20454;-57
2022/02/26 04:38:00;;;;;;;2.80;0.70;;;;;;;4.40;100.00;102257.84;4934305;29;20062;-52
2022/02/26 04:40:26;;;;;;;2.08;0.93;;;;;;;4.39;100.00;102258.88;4953174;29;20463;-52
2022/02/26 04:42:51;;;;;;;5.55;0.65;;;;;;;4.40;100.00;102262.34;4935837;29;20126;-53
2022/02/26 04:45:17;;;;;;;3.83;0.93;;;;;;;4.34;100.00;102264.25;4950591;29;20159;-57
2022/02/26 04:47:44;;;;;;;3.10;0.65;;;;;;;4.35;100.00;102265.88;4951709;29;20093;-56
2022/02/26 04:50:12;;;;;;;5.13;1.10;;;;;;;4.35;100.00;102267.72;4952633;29;20046;-54
2022/02/26 04:52:38;;;;;;;3.25;0.68;;;;;;;4.36;100.00;102282.63;4940643;28;20035;-53
2022/02/26 04:55:05;;;;;;;4.07;0.70;;;;;;;4.27;100.00;102284.28;4959903;28;20035;-55
2022/02/26 04:57:30;;;;;;;2.63;1.65;;;;;;;4.24;100.00;102284.84;4953864;28;20074;-49
2022/02/26 04:59:56;;;;;;;7.18;1.40;;;;;;;4.24;100.00;102282.16;4952039;28;20039;-52
2022/02/26 05:02:21;;;;;;;0.30;0.30;;;;;;;4.24;100.00;102287.50;4946780;29;20037;-47
2022/02/26 05:04:47;;;;;;;3.22;0.65;;;;;;;4.25;100.00;102300.56;4952388;28;20035;-47
2022/02/26 05:07:15;;;;;;;0.73;0.45;;;;;;;4.25;100.00;102299.75;4952859;28;20042;-53
2022/02/26 05:09:41;;;;;;;1.80;0.90;;;;;;;4.24;100.00;102306.16;4946028;28;20043;-50
2022/02/26 05:12:07;;;;;;;2.15;1.13;;;;;;;4.20;100.00;102313.09;4942457;29;20457;-52
2022/02/26 05:14:33;;;;;;;5.68;1.48;;;;;;;4.15;100.00;102315.75;4952546;29;20039;-50
2022/02/26 05:16:58;;;;;;;6.13;0.65;;;;;;;4.17;100.00;102326.94;4953550;29;20066;-54
2022/02/26 05:19:23;;;;;;;4.15;0.93;;;;;;;4.15;100.00;102332.56;4937778;29;20035;-50
2022/02/26 05:21:50;;;;;;;0.73;0.65;;;;;;;4.09;100.00;102330.16;4951276;28;20430;-50
2022/02/26 05:24:16;;;;;;;3.40;0.98;;;;;;;4.06;100.00;102339.53;4952753;29;20043;-47
2022/02/26 05:26:41;;;;;;;11.75;0.68;;;;;;;4.23;100.00;102333.88;4935652;29;20024;-50
2022/02/26 05:29:07;;;;;;;1.45;0.63;;;;;;;4.11;100.00;102344.81;4932659;29;20071;-51
2022/02/26 05:31:34;;;;;;;0.77;0.43;;;;;;;4.05;100.00;102355.75;4952196;28;20054;-50
2022/02/26 05:33:59;;;;;;;5.22;0.80;;;;;;;4.04;100.00;102354.97;4953234;29;20031;-50
2022/02/26 05:36:25;;;;;;;2.92;0.98;;;;;;;4.05;100.00;102359.22;4952377;28;20403;-55
2022/02/26 05:38:50;;;;;;;0.95;0.45;;;;;;;4.09;100.00;102364.81;4932002;29;20051;-47
2022/02/26 05:41:16;;;;;;;2.85;0.80;;;;;;;4.10;100.00;102372.56;4952280;29;20075;-47
2022/02/26 05:43:41;;;;;;;1.00;0.90;;;;;;;4.01;100.00;102374.16;4952990;29;20039;-50
2022/02/26 05:46:07;;;;;;;5.43;0.90;;;;;;;4.00;100.00;102377.09;4953355;29;20119;-49
2022/02/26 05:48:32;;;;;;;1.75;0.93;;;;;;;3.97;100.00;102375.75;4937329;29;20522;-48
2022/02/26 05:50:58;;;;;;;8.57;1.05;;;;;;;3.93;100.00;102385.34;4951971;29;20114;-48
2022/02/26 05:53:23;;;;;;;1.55;0.50;;;;;;;3.87;100.00;102393.63;4952169;29;20031;-54
2022/02/26 05:55:48;;;;;;;4.43;1.38;;;;;;;3.84;100.00;102394.13;4947710;29;20114;-47
2022/02/26 05:58:14;;;;;;;6.65;1.15;;;;;;;3.85;100.00;102401.88;4934411;29;20027;-48
2022/02/26 06:00:39;;;;;;;1.77;0.77;;;;;;;3.86;100.00;102392.00;4945275;28;20044;-54
2022/02/26 06:03:05;;;;;;;3.90;0.75;;;;;;;3.89;100.00;102404.81;4952201;29;20077;-47
2022/02/26 06:05:30;;;;;;;3.60;0.82;;;;;;;3.84;100.00;102410.13;4951420;29;20058;-48
2022/02/26 06:07:56;;;;;;;6.05;0.68;;;;;;;3.86;100.00;102408.81;4935242;29;20034;-53
2022/02/26 06:10:21;;;;;;;3.70;1.15;;;;;;;3.85;100.00;102414.41;4944589;29;20447;-47
2022/02/26 06:12:47;;;;;;;2.35;1.30;;;;;;;3.87;100.00;102414.94;4951152;29;20115;-51
2022/02/26 06:15:12;;;;;;;0.60;0.60;;;;;;;3.82;100.00;102420.25;4948403;29;20442;-51
2022/02/26 06:17:38;;;;;;;6.63;1.58;;;;;;;3.81;100.00;102430.13;4952559;29;20038;-48
2022/02/26 06:20:05;;;;;;;1.90;0.63;;;;;;;3.79;100.00;102429.59;4951066;28;20541;-51
2022/02/26 06:22:30;;;;;;;5.40;1.58;;;;;;;3.78;100.00;102443.16;4951466;29;20490;-50
2022/02/26 06:24:56;;;;;;;3.60;0.50;;;;;;;3.81;100.00;102448.78;4938561;29;20035;-48
2022/02/26 06:27:21;;;;;;;10.93;1.30;;;;;;;3.74;100.00;102452.72;4948935;29;20122;-47
2022/02/26 06:29:47;;;;;;;0.25;0.20;;;;;;;3.76;100.00;102455.94;4951363;29;20053;-54
2022/02/26 06:32:12;;;;;;;2.13;0.82;;;;;;;3.81;100.00;102461.28;4934683;29;20108;-54
2022/02/26 06:34:38;;;;;;;3.38;0.70;;;;;;;3.85;100.00;102470.34;4947227;29;20031;-50
2022/02/26 06:37:03;;;;;;;1.02;0.45;;;;;;;3.86;100.00;102471.94;4950818;29;20035;-53
2022/02/26 06:39:29;;;;;;;2.40;0.95;;;;;;;3.89;100.00;102479.41;4951872;28;20441;-51
2022/02/26 06:41:54;;;;;;;8.20;1.23;;;;;;;3.79;100.00;102488.19;4944266;29;20031;-48
2022/02/26 06:44:20;;;;;;;2.65;0.80;;;;;;;3.77;100.00;102486.84;4952011;29;20130;-49
2022/02/26 06:46:47;;;;;;;9.90;0.85;;;;;;;3.77;100.00;102492.19;4952366;29;20042;-50
2022/02/26 06:49:14;;;;;;;4.35;0.85;;;;;;;3.81;100.00;102496.72;4948162;29;20035;-54
2022/02/26 06:51:39;;;;;;;0.95;0.55;;;;;;;3.84;100.00;102500.69;4948592;28;20042;-51
2022/02/26 06:54:05;;;;;;;12.57;0.70;;;;;;;3.99;100.00;102503.41;4951286;29;20031;-47
2022/02/26 06:56:30;;;;;;;0.60;0.60;;;;;;;4.00;100.00;102505.81;4952319;29;20428;-48
2022/02/26 06:58:56;;;;;;;5.88;0.40;;;;;;;4.02;100.00;102508.22;4943916;28;20040;-52
2022/02/26 07:01:21;;;;;;;2.08;0.60;;;;;;;3.98;100.00;102507.13;4958379;28;20031;-47
2022/02/26 07:03:47;;;;;;;2.78;0.82;;;;;;;4.03;100.00;102515.13;4951433;29;20207;-48
2022/02/26 07:06:13;;;;;;;0.70;0.70;;;;;;;3.96;100.00;102512.72;4951151;29;20031;-50
2022/02/26 07:08:38;;;;;;;7.68;1.05;;;;;;;3.98;100.00;102512.47;4939958;29;20079;-49
2022/02/26 07:11:03;;;;;;;1.05;0.43;;;;;;;3.96;100.00;102510.06;4933398;29;20285;-53
2022/02/26 07:13:29;;;;;;;6.40;1.10;;;;;;;3.92;100.00;102514.31;4932756;29;20050;-49
2022/02/26 07:15:56;;;;;;;0.50;0.50;;;;;;;3.95;100.00;102516.44;4950697;29;20071;-49
2022/02/26 07:18:22;;;;;;;6.00;0.50;;;;;;;4.01;100.00;102522.56;4948168;29;20031;-53
2022/02/26 07:20:47;;;;;;;0.60;0.30;;;;;;;4.06;100.00;102525.28;4938984;29;20039;-53
2022/02/26 07:23:13;;;;;;;0.73;0.20;;;;;;;4.09;100.00;102522.06;4933580;29;20456;-49
2022/02/26 07:25:42;;;;;;;6.03;0.47;;;;;;;4.11;100.00;102531.41;4951669;29;20118;-54
2022/02/26 07:28:09;;;;;;;7.65;0.68;;;;;;;4.19;100.00;102530.88;4928230;29;20059;-50
2022/02/26 07:30:35;;;;;;;3.00;0.43;;;;;;;4.17;100.00;102541.00;4937260;29;20469;-57
2022/02/26 07:33:01;;;;;;;2.00;0.40;;;;;;;4.22;100.00;102543.66;4931443;29;20062;-49
2022/02/26 07:35:26;;;;;;;5.00;0.85;;;;;;;4.27;100.00;102545.56;4947682;29;20058;-51
2022/02/26 07:37:52;;;;;;;8.60;0.73;;;;;;;4.29;100.00;102556.75;4948013;29;20103;-48
2022/02/26 07:40:17;;;;;;;1.55;0.98;;;;;;;4.37;100.00;102554.38;4950919;28;20035;-50
2022/02/26 07:42:43;;;;;;;4.00;1.45;;;;;;;4.48;100.00;102561.31;4951518;29;20078;-52
2022/02/26 07:45:09;;;;;;;4.43;0.93;;;;;;;4.61;100.00;102556.50;4941962;29;20129;-48
2022/02/26 07:47:35;;;;;;;1.23;1.10;;;;;;;4.75;100.00;102571.69;4949945;29;20450;-47
2022/02/26 07:50:00;;;;;;;8.30;2.05;;;;;;;4.92;100.00;102577.53;4950515;29;20352;-48
2022/02/26 07:52:31;;;;;;;1.45;0.60;;;;;;;5.14;100.00;102571.91;4944108;29;20156;-48
2022/02/26 07:54:57;;;;;;;3.67;1.15;;;;;;;5.35;100.00;102576.13;4941748;29;20043;-48
2022/02/26 07:57:23;;;;;;;10.60;1.02;;;;;;;5.57;100.00;102570.44;4945558;28;20035;-49
2022/02/26 07:59:48;;;;;;;4.47;0.75;;;;;;;5.82;100.00;102576.47;4946117;28;20043;-54
2022/02/26 08:02:14;;;;;;;1.33;0.93;;;;;;;6.09;100.00;102587.59;4949480;29;20414;-52
2022/02/26 08:04:39;;;;;;;5.35;1.08;;;;;;;6.30;100.00;102594.41;4951204;29;20066;-57
2022/02/26 08:07:05;;;;;;;3.13;0.80;;;;;;;6.53;100.00;102600.94;4945753;29;20027;-53
2022/02/26 08:09:31;;;;;;;0.88;0.55;;;;;;;6.72;100.00;102611.75;4940721;29;20043;-49
2022/02/26 08:11:57;;;;;;;2.83;0.93;;;;;;;6.91;99.97;102612.69;4946892;28;20054;-53
2022/02/26 08:14:23;;;;;;;5.88;0.80;;;;;;;7.14;98.99;102626.09;4950950;29;20113;-52
2022/02/26 08:16:48;;;;;;;5.53;1.65;;;;;;;7.46;96.64;102628.19;4932672;29;20131;-53
2022/02/26 08:19:14;;;;;;;3.97;1.00;;;;;;;7.59;94.48;102629.41;4927427;29;20362;-55
2022/02/26 08:21:40;;;;;;;2.05;0.88;;;;;;;7.79;92.82;102632.66;4946461;29;20046;-55
2022/02/26 08:24:06;;;;;;;2.47;1.00;;;;;;;7.78;91.94;102636.41;4950985;29;20371;-54
2022/02/26 08:26:31;;;;;;;7.50;0.90;;;;;;;7.79;90.69;102645.25;4934061;29;20039;-51
2022/02/26 08:28:57;;;;;;;5.82;1.05;;;;;;;7.93;90.64;102648.84;4956709;23;20046;-60
2022/02/26 08:31:22;;;;;;;8.48;1.08;;;;;;;8.00;90.13;102655.44;4968495;28;20047;-60
2022/02/26 08:33:48;;;;;;;7.13;1.42;;;;;;;8.13;89.54;102653.94;4970416;28;20037;-61
2022/02/26 08:36:14;;;;;;;2.38;1.20;;;;;;;8.17;88.84;102660.31;4971275;28;20408;-62
2022/02/26 08:38:41;;;;;;;3.75;0.98;;;;;;;8.34;87.99;102658.00;4962288;28;20042;-62
2022/02/26 08:41:06;;;;;;;5.15;2.83;;;;;;;8.57;87.26;102661.69;4958725;28;20019;-62
2022/02/26 08:43:32;;;;;;;3.15;1.40;;;;;;;8.85;84.79;102664.19;4955561;28;20041;-59
2022/02/26 08:45:57;;;;;;;3.42;1.10;;;;;;;8.96;83.87;102678.28;4971550;28;20046;-61
2022/02/26 08:48:23;;;;;;;6.85;1.42;;;;;;;8.89;83.44;102675.16;4950226;28;20085;-58
2022/02/26 08:50:49;;;;;;;1.88;0.82;;;;;;;8.86;83.18;102668.50;4966544;28;20033;-62
2022/02/26 08:53:15;;;;;;;5.32;1.30;;;;;;;9.00;83.24;102673.91;4967278;28;20547;-62
2022/02/26 08:55:40;;;;;;;0.85;0.60;;;;;;;9.08;82.51;102684.78;4966396;28;20397;-62
2022/02/26 08:58:06;;;;;;;4.32;1.15;;;;;;;9.18;82.44;102680.31;4962820;28;20343;-59
2022/02/26 09:00:34;;;;;;;3.08;0.80;;;;;;;9.37;81.74;102691.81;4939078;28;20054;-58
2022/02/26 09:03:00;;;;;;;10.90;0.93;;;;;;;9.42;80.50;102697.09;4955975;28;20082;-59
2022/02/26 09:05:25;;;;;;;9.02;1.30;;;;;;;9.48;79.67;102704.00;4953506;28;20043;-57
2022/02/26 09:07:50;;;;;;;1.80;0.82;;;;;;;9.52;79.10;102703.09;4973822;28;20076;-60
2022/02/26 09:10:16;;;;;;;3.42;1.00;;;;;;;9.57;79.02;102711.06;4966124;28;20486;-62
2022/02/26 09:12:42;;;;;;;3.75;0.85;;;;;;;9.55;78.15;102712.47;4957007;28;20066;-62
2022/02/26 09:15:08;;;;;;;3.22;1.25;;;;;;;9.73;78.04;102714.28;4974060;28;20501;-62
2022/02/26 09:17:33;;;;;;;4.75;1.10;;;;;;;9.92;77.42;102713.09;4973802;28;20018;-61
2022/02/26 09:19:58;;;;;;;3.63;0.65;;;;;;;9.98;75.95;102719.97;4957633;28;20031;-61
2022/02/26 09:22:24;;;;;;;2.28;1.00;;;;;;;10.15;75.44;102716.69;4970638;28;20042;-58
2022/02/26 09:24:49;;;;;;;5.22;1.10;;;;;;;10.41;73.83;102720.47;4973265;28;20498;-61
2022/02/26 09:27:15;;;;;;;3.42;0.80;;;;;;;10.34;72.72;102728.16;4969605;28;20042;-62
2022/02/26 09:29:40;;;;;;;5.18;2.78;;;;;;;10.34;72.84;102733.53;4962051;28;20038;-59
2022/02/26 09:32:07;;;;;;;2.35;0.35;;;;;;;10.47;72.85;102724.63;4973403;28;20417;-60
2022/02/26 09:34:32;;;;;;;1.95;0.50;;;;;;;10.46;71.47;102725.75;4962360;28;20031;-61
2022/02/26 09:36:58;;;;;;;5.65;0.93;;;;;;;10.45;70.39;102736.81;4962431;28;20390;-61
2022/02/26 09:39:23;;;;;;;8.95;1.08;;;;;;;10.47;70.10;102734.63;4953791;28;20035;-62
2022/02/26 09:41:50;;;;;;;0.95;0.60;;;;;;;10.52;69.27;102738.00;4958235;28;20053;-61
2022/02/26 09:44:16;;;;;;;1.23;0.60;;;;;;;10.65;68.37;102737.16;4964160;28;20046;-61
2022/02/26 09:46:43;;;;;;;3.42;0.93;;;;;;;10.66;68.53;102733.38;4951546;28;20130;-62
2022/02/26 09:49:09;;;;;;;1.80;0.65;;;;;;;10.60;69.03;102750.75;4962563;28;20394;-62
2022/02/26 09:51:38;;;;;;;0.98;0.50;;;;;;;10.60;68.26;102753.47;4970178;28;20043;-60
2022/02/26 09:54:04;;;;;;;5.45;0.80;;;;;;;10.60;68.19;102753.47;4955913;28;20038;-61
2022/02/26 09:56:29;;;;;;;5.20;0.75;;;;;;;10.53;68.61;102749.59;4972417;28;20460;-61
2022/02/26 09:58:54;;;;;;;8.25;0.68;;;;;;;10.56;67.90;102760.53;4949141;28;20556;-62
2022/02/26 10:01:20;;;;;;;1.17;0.40;;;;;;;10.50;67.02;102752.88;4979587;28;20046;-59
2022/02/26 10:03:45;;;;;;;2.45;0.55;;;;;;;10.45;67.10;102750.28;4974809;28;20081;-59
2022/02/26 10:06:19;;;;;;;5.95;0.40;;;;;;;10.36;68.30;102755.56;4968363;28;20381;-62
2022/02/26 10:08:51;;;;;;;1.15;0.45;;;;;;;10.39;69.56;102760.38;4971825;28;20139;-59
2022/02/26 10:11:24;;;;;;;7.45;1.08;;;;;;;10.46;68.18;102768.84;4953271;28;20051;-59
2022/02/26 10:13:51;;;;;;;2.05;0.45;;;;;;;10.41;68.15;102766.25;4966153;28;20117;-62
2022/02/26 10:16:16;;;;;;;3.83;0.70;;;;;;;10.48;67.79;102761.25;4966549;28;20062;-60
2022/02/26 10:18:54;;;;;;;1.67;0.47;;;;;;;10.51;67.48;102767.94;4977814;28;20081;-58
2022/02/26 10:21:31;;;;;;;4.07;0.50;;;;;;;10.45;67.33;102764.53;4973616;28;20026;-59
2022/02/26 10:23:56;;;;;;;1.80;0.50;;;;;;;10.52;65.83;102769.53;4961682;28;20066;-60
2022/02/26 10:26:27;;;;;;;3.22;0.60;;;;;;;10.55;65.90;102769.72;4960589;28;20033;-62
2022/02/26 10:29:15;;;;;;;0.80;0.50;;;;;;;10.61;65.48;102763.13;4966391;28;20108;-58
2022/02/26 10:31:48;;;;;;;0.80;0.63;;;;;;;10.67;65.47;102772.69;4966839;28;20038;-62
2022/02/26 10:34:24;;;;;;;1.55;0.30;;;;;;;10.73;65.66;102776.88;4943765;28;20833;-62
2022/02/26 10:37:00;;;;;;;1.52;0.32;;;;;;;10.76;66.00;102775.47;4967640;28;20524;-62
2022/02/26 10:39:32;;;;;;;4.15;0.40;;;;;;;10.84;65.39;102775.53;4963502;28;20465;-61
2022/02/26 10:41:58;;;;;;;0.55;0.30;;;;;;;10.94;64.54;102762.94;4963139;28;20413;-58
2022/02/26 10:44:24;;;;;;;2.58;0.50;;;;;;;10.87;63.28;102774.13;4966689;28;20031;-62
2022/02/26 10:46:50;;;;;;;1.15;0.68;;;;;;;11.03;63.75;102771.91;4975320;28;20039;-62
2022/02/26 10:49:17;;;;;;;1.00;0.30;;;;;;;11.04;62.48;102770.78;4971144;28;20037;-61
2022/02/26 10:51:45;;;;;;;0.50;0.40;;;;;;;11.03;61.20;102772.69;4962102;28;20486;-60
2022/02/26 10:54:17;;;;;;;0.95;0.55;;;;;;;11.02;59.58;102775.69;4967703;28;20031;-61
2022/02/26 10:56:44;;;;;;;2.05;0.82;;;;;;;11.05;59.52;102773.19;4965037;28;20035;-61
2022/02/26 10:59:12;;;;;;;1.13;0.35;;;;;;;11.20;58.20;102775.53;4961913;28;20157;-61
2022/02/26 11:01:38;;;;;;;1.60;0.40;;;;;;;11.13;58.57;102761.66;4965260;28;20038;-60
2022/02/26 11:04:04;;;;;;;2.70;0.40;;;;;;;11.06;58.23;102768.56;4970915;28;20078;-61
2022/02/26 11:06:32;;;;;;;0.40;0.40;;;;;;;11.08;58.20;102775.25;4945421;28;20050;-61
2022/02/26 11:08:58;;;;;;;2.25;0.50;;;;;;;11.08;57.48;102769.88;4962183;28;20123;-60
2022/02/26 11:11:24;;;;;;;2.65;0.30;;;;;;;11.05;57.49;102764.31;4963905;28;20555;-58
2022/02/26 11:13:55;;;;;;;1.60;0.40;;;;;;;11.09;56.77;102773.38;4973099;28;20065;-59
2022/02/26 11:16:23;;;;;;;1.27;0.60;;;;;;;11.16;55.65;102771.03;4972883;28;20045;-59
2022/02/26 11:18:53;;;;;;;5.00;0.80;;;;;;;11.07;55.81;102775.59;4956909;28;20031;-60
2022/02/26 11:21:20;;;;;;;1.70;0.40;;;;;;;11.11;55.34;102771.94;4972661;28;20034;-57
2022/02/26 11:23:48;;;;;;;0.95;0.45;;;;;;;11.10;56.23;102766.88;4979025;28;20030;-61